Time;durP1;ratioP1;P1;durP2;ratioP2;P2;SDS_P1;SDS_P2;PMS_P1;PMS_P2;Temp;Humidity;BMP_temperature;BMP_pressure;BME280_temperature;BME280_humidity;BME280_pressure;Samples;Min_cycle;Max_cycle;Signal;HPM_P1;HPM_P2
2021/06/14 00:00:56;;;;;;;4.78;1.52;;;;;;;17.28;72.42;98723.18;362546;110;1962937;-75
2021/06/14 00:02:04;;;;;;;3.59;1.74;;;;;;;17.26;71.38;98713.63;344239;111;1962088;-74
2021/06/14 00:03:16;;;;;;;3.39;1.43;;;;;;;17.31;70.56;98713.63;385285;106;1986957;-76
2021/06/14 00:04:22;;;;;;;3.57;1.26;;;;;;;17.19;72.14;98718.53;366464;109;1961967;-75
2021/06/14 00:05:39;;;;;;;4.48;1.68;;;;;;;17.20;72.92;98709.23;363745;109;1962069;-74
2021/06/14 00:06:51;;;;;;;3.94;1.36;;;;;;;17.31;72.84;98702.70;386562;106;1986031;-74
2021/06/14 00:07:58;;;;;;;4.08;1.07;;;;;;;17.22;72.55;98710.60;356576;111;1962060;-74
2021/06/14 00:09:11;;;;;;;2.42;1.37;;;;;;;17.34;72.44;98708.43;366711;108;1986944;-75
2021/06/14 00:10:19;;;;;;;4.89;1.50;;;;;;;17.25;72.76;98706.51;353185;113;1961975;-76
2021/06/14 00:11:42;;;;;;;3.03;1.54;;;;;;;17.20;70.90;98710.08;353019;112;1962056;-75
2021/06/14 00:12:55;;;;;;;1.83;1.14;;;;;;;17.38;72.46;98705.96;395004;104;1987076;-75
2021/06/14 00:14:02;;;;;;;3.31;1.18;;;;;;;17.28;72.25;98708.69;375220;108;1962070;-76
2021/06/14 00:15:09;;;;;;;5.37;1.56;;;;;;;17.31;72.13;98711.71;320313;107;2264969;-74
2021/06/14 00:16:22;;;;;;;3.71;1.46;;;;;;;17.43;70.79;98710.61;385129;106;1986049;-75
2021/06/14 00:17:29;;;;;;;3.82;1.45;;;;;;;17.35;71.85;98709.24;361331;109;1962090;-75
2021/06/14 00:18:41;;;;;;;2.58;1.21;;;;;;;17.49;72.02;98709.50;384373;106;1987071;-75
2021/06/14 00:19:48;;;;;;;4.22;1.45;;;;;;;17.42;71.52;98708.98;366231;109;1961992;-76
2021/06/14 00:21:13;;;;;;;3.81;1.44;;;;;;;17.41;71.04;98707.33;364454;110;1962017;-73
2021/06/14 00:22:20;;;;;;;2.91;1.36;;;;;;;17.43;71.82;98708.69;365439;109;1961899;-73
2021/06/14 00:23:32;;;;;;;4.94;1.62;;;;;;;17.57;70.68;98714.41;389419;104;1973075;-75
2021/06/14 00:24:37;;;;;;;4.99;1.54;;;;;;;17.48;71.15;98722.34;374740;106;1961983;-75
2021/06/14 00:25:51;;;;;;;5.24;1.67;;;;;;;17.60;71.03;98722.07;390341;104;2070962;-75
2021/06/14 00:26:57;;;;;;;3.63;1.84;;;;;;;17.50;71.32;98722.08;375006;107;1962931;-75
2021/06/14 00:28:09;;;;;;;3.73;1.77;;;;;;;17.62;71.48;98721.78;404707;101;2076797;-75
2021/06/14 00:29:15;;;;;;;3.84;1.52;;;;;;;17.53;71.61;98732.45;388339;103;1961928;-76
2021/06/14 00:30:42;;;;;;;3.73;1.67;;;;;;;17.52;71.30;98726.17;339113;103;2883975;-75
2021/06/14 00:31:47;;;;;;;4.04;1.72;;;;;;;17.51;71.50;98729.97;391057;103;1962086;-75
2021/06/14 00:32:53;;;;;;;3.56;1.90;;;;;;;17.51;71.33;98723.70;385001;105;1962040;-75
2021/06/14 00:34:08;;;;;;;4.19;2.16;;;;;;;17.61;70.83;98720.96;362476;101;2728072;-74
2021/06/14 00:35:13;;;;;;;3.31;1.69;;;;;;;17.48;71.10;98719.61;381936;105;1962020;-76
2021/06/14 00:36:26;;;;;;;3.42;1.74;;;;;;;17.57;71.06;98720.70;393804;104;1985890;-73
2021/06/14 00:37:31;;;;;;;4.24;1.99;;;;;;;17.45;70.61;98717.43;375896;106;1962015;-74
2021/06/14 00:38:45;;;;;;;4.82;1.49;;;;;;;17.52;70.24;98715.25;392876;104;1984936;-73
2021/06/14 00:39:52;;;;;;;3.77;1.62;;;;;;;17.42;69.82;98722.63;378142;107;1962031;-73
2021/06/14 00:41:15;;;;;;;3.70;1.82;;;;;;;17.38;68.61;98721.53;374793;107;1961983;-72
2021/06/14 00:42:28;;;;;;;4.46;2.14;;;;;;;17.46;68.58;98718.24;387082;104;2070897;-76
2021/06/14 00:43:34;;;;;;;5.41;2.72;;;;;;;17.31;69.11;98728.09;370582;107;1968999;-76
2021/06/14 00:44:46;;;;;;;3.47;1.82;;;;;;;17.33;69.15;98720.45;392798;103;1966872;-75
2021/06/14 00:45:53;;;;;;;4.53;2.38;;;;;;;17.15;69.44;98723.72;375457;107;1962050;-75
2021/06/14 00:47:05;;;;;;;6.47;2.29;;;;;;;17.17;69.65;98718.78;360330;104;2481985;-75
2021/06/14 00:48:11;;;;;;;6.24;2.87;;;;;;;16.96;69.16;98723.41;352493;107;1960927;-75
2021/06/14 00:49:23;;;;;;;5.61;2.32;;;;;;;16.96;69.81;98714.41;369373;109;2079918;-76
2021/06/14 00:50:55;;;;;;;4.94;2.64;;;;;;;16.79;69.77;98718.20;315929;111;2728066;-76
2021/06/14 00:52:08;;;;;;;6.59;2.61;;;;;;;16.81;70.72;98721.48;391972;105;1986011;-76
2021/06/14 00:53:17;;;;;;;4.69;2.28;;;;;;;16.65;70.78;98720.60;367105;109;1965003;-75
2021/06/14 00:54:41;;;;;;;7.02;2.14;;;;;;;16.60;70.43;98723.31;369113;109;1962089;-76
2021/06/14 00:55:53;;;;;;;4.16;1.98;;;;;;;16.68;69.76;98719.25;396178;104;1962879;-77
2021/06/14 00:57:00;;;;;;;4.81;2.21;;;;;;;16.58;70.37;98720.03;374632;105;1969999;-76
2021/06/14 00:58:14;;;;;;;6.19;2.17;;;;;;;16.73;70.36;98715.72;339795;101;2269072;-73
2021/06/14 00:59:25;;;;;;;5.79;2.25;;;;;;;16.75;69.84;98711.64;384789;106;1964995;-72
2021/06/14 01:00:51;;;;;;;5.17;2.18;;;;;;;16.64;70.13;98712.67;367568;109;1962069;-75
2021/06/14 01:02:04;;;;;;;4.90;2.51;;;;;;;16.71;70.37;98711.34;370930;104;2073096;-73
2021/06/14 01:03:10;;;;;;;6.14;2.44;;;;;;;16.58;70.20;98713.77;369493;108;1961782;-74
2021/06/14 01:04:23;;;;;;;5.10;1.98;;;;;;;16.64;69.75;98716.22;393119;104;1960925;-74
2021/06/14 01:05:32;;;;;;;6.68;3.13;;;;;;;16.47;69.04;98713.73;368388;105;2961022;-76
2021/06/14 01:06:55;;;;;;;5.04;1.97;;;;;;;16.46;68.99;98716.74;354876;108;1962073;-76
2021/06/14 01:08:09;;;;;;;11.77;2.51;;;;;;;16.59;69.56;98713.51;394933;104;1985905;-76
2021/06/14 01:09:16;;;;;;;3.42;1.90;;;;;;;16.46;69.73;98712.10;346751;106;1963073;-76
2021/06/14 01:10:28;;;;;;;5.74;2.27;;;;;;;16.56;69.22;98716.75;387280;106;1964120;-76
2021/06/14 01:11:47;;;;;;;5.30;2.09;;;;;;;16.41;69.94;98720.27;363422;109;1971061;-74
2021/06/14 01:13:29;;;;;;;5.23;2.36;;;;;;;16.37;69.19;98721.05;350474;110;1962022;-74
2021/06/14 01:14:54;;;;;;;7.32;2.24;;;;;;;16.41;70.42;98720.27;386978;106;1987043;-75
2021/06/14 01:16:25;;;;;;;6.49;2.01;;;;;;;16.37;69.83;98723.78;388040;103;1986042;-73
2021/06/14 01:17:41;;;;;;;5.57;2.12;;;;;;;16.24;70.49;98727.81;326335;107;2777975;-73
2021/06/14 01:20:44;;;;;;;3.81;2.25;;;;;;;16.28;70.50;98725.39;393838;104;1987034;-74
2021/06/14 01:22:11;;;;;;;4.46;1.98;;;;;;;16.14;70.36;98731.33;373358;106;1962058;-74
2021/06/14 01:23:43;;;;;;;4.58;1.48;;;;;;;16.21;70.81;98722.90;397616;103;1986043;-74
2021/06/14 01:24:56;;;;;;;3.43;1.42;;;;;;;16.10;70.86;98727.48;370943;107;1963008;-76
2021/06/14 01:26:25;;;;;;;4.54;1.38;;;;;;;16.16;70.54;98723.69;331719;107;2694019;-74
2021/06/14 01:29:06;;;;;;;4.65;1.81;;;;;;;16.45;70.33;98715.89;347425;104;2197023;-75
2021/06/14 01:30:24;;;;;;;2.64;1.09;;;;;;;16.42;69.94;98719.16;373971;105;1964981;-75
2021/06/14 01:31:39;;;;;;;4.27;1.52;;;;;;;16.66;69.44;98721.42;394322;103;1986004;-74
2021/06/14 01:32:47;;;;;;;5.74;1.73;;;;;;;16.61;68.88;98715.95;325646;106;2072056;-75
2021/06/14 01:34:11;;;;;;;3.24;1.39;;;;;;;16.71;68.74;98724.97;343780;106;1962044;-74
2021/06/14 01:35:31;;;;;;;3.76;1.74;;;;;;;16.91;65.98;98716.05;393372;104;1965067;-73
2021/06/14 01:36:41;;;;;;;5.31;1.82;;;;;;;16.78;67.32;98722.03;376735;106;1964070;-75
2021/06/14 01:37:51;;;;;;;3.20;1.68;;;;;;;16.78;67.89;98723.95;375586;106;1961997;-73
2021/06/14 01:39:05;;;;;;;4.67;1.72;;;;;;;16.86;67.18;98726.95;384830;106;1985976;-74
2021/06/14 01:40:14;;;;;;;9.96;2.21;;;;;;;16.74;67.26;98725.53;356628;109;1962057;-75
2021/06/14 01:41:28;;;;;;;4.77;1.74;;;;;;;16.80;66.17;98725.28;351314;103;2070013;-75
2021/06/14 01:42:36;;;;;;;4.58;2.28;;;;;;;16.66;67.27;98727.69;369789;106;1961884;-76
2021/06/14 01:44:03;;;;;;;5.48;2.17;;;;;;;16.65;67.67;98738.88;369735;108;1961949;-77
2021/06/14 01:45:09;;;;;;;3.84;1.73;;;;;;;16.60;67.58;98733.41;370829;108;1961998;-75
2021/06/14 01:46:25;;;;;;;4.21;1.78;;;;;;;16.68;67.73;98741.06;358697;104;2551950;-75
2021/06/14 01:47:32;;;;;;;4.57;1.96;;;;;;;16.56;67.80;98732.29;309637;105;2225024;-75
2021/06/14 01:48:45;;;;;;;6.59;2.32;;;;;;;16.66;67.63;98737.78;381701;108;1981893;-74
2021/06/14 01:49:53;;;;;;;3.36;1.68;;;;;;;16.52;67.99;98736.66;362794;110;1962024;-73
2021/06/14 01:51:21;;;;;;;4.28;1.73;;;;;;;16.51;68.02;98740.45;341981;115;2902022;-74
2021/06/14 01:52:34;;;;;;;5.87;2.13;;;;;;;16.59;67.17;98746.22;388651;104;1987964;-74
2021/06/14 01:53:41;;;;;;;3.57;2.10;;;;;;;16.47;67.26;98745.63;370914;107;1961940;-75
2021/06/14 01:54:55;;;;;;;4.28;2.27;;;;;;;16.56;67.45;98740.47;327727;104;2303978;-76
2021/06/14 01:56:06;;;;;;;;;;;;;;;16.43;67.65;98742.63;376928;106;1963957;-74
2021/06/14 01:57:14;;;;;;;5.31;2.45;;;;;;;16.42;67.46;98745.60;371358;108;1960975;-74
2021/06/14 01:58:26;;;;;;;4.81;1.99;;;;;;;16.52;67.06;98742.11;396326;104;1987854;-74
2021/06/14 01:59:37;;;;;;;7.19;3.07;;;;;;;16.38;67.20;98745.33;342532;107;1963934;-74
2021/06/14 02:00:50;;;;;;;5.20;2.10;;;;;;;16.48;67.00;98737.20;379649;104;1985996;-74
2021/06/14 02:02:16;;;;;;;6.09;1.91;;;;;;;16.31;66.55;98731.12;340098;107;1963083;-74
2021/06/14 02:03:42;;;;;;;3.41;1.87;;;;;;;16.37;66.57;98740.95;373413;106;1962061;-74
2021/06/14 02:05:10;;;;;;;4.16;1.91;;;;;;;16.35;66.48;98745.84;372390;106;1962980;-73
2021/06/14 02:06:25;;;;;;;4.49;2.03;;;;;;;16.46;66.62;98749.45;394400;104;1985992;-74
2021/06/14 02:07:32;;;;;;;3.26;1.97;;;;;;;16.32;66.52;98749.09;373611;105;1962959;-74
2021/06/14 02:08:45;;;;;;;3.09;1.71;;;;;;;16.42;66.53;98751.06;365287;104;1986954;-74
2021/06/14 02:09:52;;;;;;;4.32;1.92;;;;;;;16.31;66.61;98752.11;363509;107;1962040;-73
2021/06/14 02:11:18;;;;;;;5.84;2.12;;;;;;;16.30;66.81;98748.56;372403;107;1962124;-74
2021/06/14 02:12:30;;;;;;;6.00;2.01;;;;;;;16.39;67.02;98748.87;362553;104;1974960;-73
2021/06/14 02:13:37;;;;;;;4.27;2.22;;;;;;;16.28;67.04;98749.92;369668;109;1961934;-74
2021/06/14 02:14:52;;;;;;;3.59;1.76;;;;;;;16.39;67.01;98748.87;359549;109;1995074;-73
2021/06/14 02:15:57;;;;;;;5.74;2.34;;;;;;;16.26;66.99;98748.27;364801;109;1961945;-74
2021/06/14 02:17:10;;;;;;;5.62;2.36;;;;;;;16.25;67.28;98748.55;362639;110;1963029;-74
2021/06/14 02:18:24;;;;;;;3.76;1.84;;;;;;;16.35;67.55;98742.30;394688;104;1986984;-73
2021/06/14 02:19:31;;;;;;;4.56;2.22;;;;;;;16.23;67.86;98748.80;349428;106;1962037;-75
2021/06/14 02:20:46;;;;;;;4.96;2.26;;;;;;;16.35;67.71;98750.47;382942;106;1987066;-74
2021/06/14 02:21:53;;;;;;;5.83;2.23;;;;;;;16.23;67.68;98747.98;363922;109;1961953;-74
2021/06/14 02:23:05;;;;;;;5.43;2.22;;;;;;;16.33;67.66;98756.20;391398;104;2071997;-74
2021/06/14 02:24:13;;;;;;;5.76;2.41;;;;;;;16.22;67.85;98755.34;343172;105;2559060;-74
2021/06/14 02:25:19;;;;;;;7.36;2.99;;;;;;;16.20;67.75;98754.78;375963;105;1961951;-73
2021/06/14 02:26:32;;;;;;;4.53;2.53;;;;;;;16.31;67.83;98752.92;362793;106;1973064;-74
2021/06/14 02:27:39;;;;;;;4.81;2.03;;;;;;;16.19;67.85;98760.48;365006;108;1963992;-73
2021/06/14 02:28:52;;;;;;;3.62;1.72;;;;;;;16.30;68.06;98755.90;358360;104;2574959;-75
2021/06/14 02:29:58;;;;;;;3.51;1.96;;;;;;;16.17;67.84;98757.23;375991;106;1961968;-73
2021/06/14 02:31:04;;;;;;;7.17;2.45;;;;;;;16.16;68.02;98752.84;376895;107;1960966;-74
2021/06/14 02:32:17;;;;;;;6.64;2.82;;;;;;;16.27;68.04;98762.70;369089;103;2433877;-76
2021/06/14 02:33:23;;;;;;;6.54;2.37;;;;;;;16.16;68.09;98763.74;376437;107;1960686;-75
2021/06/14 02:34:39;;;;;;;5.66;2.39;;;;;;;16.28;68.50;98758.09;393553;103;1984738;-75
2021/06/14 02:35:44;;;;;;;3.83;1.97;;;;;;;16.17;68.30;98765.40;371753;108;1962048;-74
2021/06/14 02:37:09;;;;;;;4.88;2.33;;;;;;;16.18;68.21;98770.56;371348;107;1961115;-74
2021/06/14 02:38:24;;;;;;;6.34;2.40;;;;;;;16.31;68.08;98763.82;394752;104;1962068;-74
2021/06/14 02:39:32;;;;;;;4.27;2.18;;;;;;;16.20;68.06;98770.31;375366;107;1969957;-75
2021/06/14 02:40:44;;;;;;;3.90;2.12;;;;;;;16.32;68.11;98768.17;393862;104;1986072;-74
2021/06/14 02:41:51;;;;;;;4.11;2.11;;;;;;;16.20;67.59;98768.41;375583;106;1964059;-74
2021/06/14 02:43:00;;;;;;;4.38;1.78;;;;;;;16.21;67.61;98774.67;372090;107;1962014;-73
2021/06/14 02:44:15;;;;;;;5.43;2.21;;;;;;;16.32;67.52;98761.91;368887;104;2385063;-75
2021/06/14 02:45:25;;;;;;;8.29;2.52;;;;;;;16.20;67.57;98773.04;376795;107;1962014;-75
2021/06/14 02:46:37;;;;;;;3.58;2.03;;;;;;;16.18;67.53;98772.48;366415;107;2882036;-76
2021/06/14 02:47:49;;;;;;;5.27;2.25;;;;;;;16.31;67.79;98771.19;356838;106;1989960;-74
2021/06/14 02:48:55;;;;;;;3.78;2.04;;;;;;;16.21;67.85;98778.20;367288;109;1961862;-74
2021/06/14 02:50:10;;;;;;;5.89;2.79;;;;;;;16.33;67.80;98767.11;384749;103;2913063;-75
2021/06/14 02:51:18;;;;;;;5.38;2.51;;;;;;;16.25;67.74;98781.24;373625;106;1962042;-75
2021/06/14 02:52:44;;;;;;;4.86;2.25;;;;;;;16.27;67.58;98773.59;376211;106;1961869;-75
2021/06/14 02:54:04;;;;;;;4.38;2.34;;;;;;;16.41;67.75;98779.41;384826;106;1985889;-73
2021/06/14 02:55:15;;;;;;;6.53;2.19;;;;;;;16.32;67.51;98780.98;368517;109;1961976;-74
2021/06/14 02:56:25;;;;;;;4.29;2.17;;;;;;;16.34;67.22;98771.46;336301;109;1962012;-74
2021/06/14 02:57:32;;;;;;;5.67;2.37;;;;;;;16.37;67.20;98779.10;364563;109;1962049;-73
2021/06/14 02:58:41;;;;;;;5.01;2.28;;;;;;;16.36;67.22;98772.02;363188;109;1962033;-75
2021/06/14 02:59:55;;;;;;;5.85;2.06;;;;;;;16.51;67.22;98781.34;396997;104;1985901;-75
2021/06/14 03:01:04;;;;;;;5.67;2.35;;;;;;;16.42;66.81;98773.67;366969;108;1961957;-74
2021/06/14 03:02:25;;;;;;;3.98;1.99;;;;;;;16.56;66.79;98775.91;383243;106;1985892;-74
2021/06/14 03:03:32;;;;;;;3.69;2.29;;;;;;;16.45;66.76;98784.05;360789;109;1962993;-75
2021/06/14 03:04:57;;;;;;;5.79;3.37;;;;;;;16.47;66.71;98783.79;359457;110;1961943;-74
2021/06/14 03:06:14;;;;;;;4.49;2.36;;;;;;;16.62;66.48;98785.77;353965;101;2716923;-74
2021/06/14 03:07:28;;;;;;;5.96;2.76;;;;;;;16.50;66.58;98785.98;352338;104;2413097;-75
2021/06/14 03:08:42;;;;;;;4.97;2.38;;;;;;;16.62;66.65;98783.86;368057;104;2372031;-74
2021/06/14 03:09:49;;;;;;;5.47;2.64;;;;;;;16.51;66.27;98784.88;374175;106;1964055;-74
2021/06/14 03:11:02;;;;;;;5.84;2.45;;;;;;;16.63;66.14;98788.22;382366;106;1985954;-73
2021/06/14 03:12:10;;;;;;;6.08;2.53;;;;;;;16.53;66.33;98788.17;363963;109;1966078;-74
2021/06/14 03:13:22;;;;;;;5.11;2.62;;;;;;;16.65;66.05;98791.50;394924;104;1987101;-75
2021/06/14 03:14:30;;;;;;;6.48;2.67;;;;;;;16.54;66.05;98787.10;369044;107;1961059;-76
2021/06/14 03:15:42;;;;;;;14.52;4.48;;;;;;;16.68;65.93;98790.14;351654;110;1985970;-75
2021/06/14 03:16:50;;;;;;;5.59;3.05;;;;;;;16.57;66.07;98788.48;353443;111;1962004;-73
2021/06/14 03:18:16;;;;;;;4.56;2.25;;;;;;;16.58;66.14;98781.92;348369;114;1963028;-74
2021/06/14 03:19:26;;;;;;;6.23;2.70;;;;;;;16.55;65.80;98788.73;281050;114;2293039;-74
2021/06/14 03:20:38;;;;;;;5.15;2.61;;;;;;;16.57;66.03;98777.57;348803;114;1964010;-74
2021/06/14 03:21:51;;;;;;;5.57;2.66;;;;;;;16.69;65.55;98784.41;385121;106;1985934;-74
2021/06/14 03:22:59;;;;;;;5.67;2.68;;;;;;;16.60;65.63;98785.21;356262;111;1962004;-75
2021/06/14 03:24:14;;;;;;;6.51;3.02;;;;;;;16.65;65.75;98774.33;387479;104;2073032;-75
2021/06/14 03:25:20;;;;;;;5.68;2.46;;;;;;;16.63;65.87;98781.95;367408;108;1961989;-76
2021/06/14 03:26:30;;;;;;;5.49;2.58;;;;;;;16.65;65.48;98782.50;363702;109;1962026;-75
2021/06/14 03:27:44;;;;;;;6.94;2.69;;;;;;;16.76;65.34;98784.17;386850;106;1986042;-74
2021/06/14 03:28:51;;;;;;;5.78;2.80;;;;;;;16.64;65.38;98783.58;369323;109;1960989;-73
2021/06/14 03:29:57;;;;;;;4.15;2.68;;;;;;;16.65;65.31;98782.50;368792;109;1961991;-74
2021/06/14 03:31:12;;;;;;;7.78;2.53;;;;;;;16.77;65.48;98782.26;394300;104;1964876;-74
2021/06/14 03:32:19;;;;;;;7.68;3.24;;;;;;;16.66;65.43;98784.13;328107;107;2760886;-74
2021/06/14 03:33:25;;;;;;;4.42;2.90;;;;;;;16.68;65.35;98782.78;371080;108;1961955;-75
2021/06/14 03:34:32;;;;;;;9.00;2.97;;;;;;;16.71;65.42;98784.97;370562;108;1961945;-76
2021/06/14 03:35:38;;;;;;;6.99;3.05;;;;;;;16.74;65.27;98793.70;364353;110;1961961;-75
2021/06/14 03:36:50;;;;;;;8.74;3.39;;;;;;;16.88;65.38;98784.80;393254;103;2071968;-73
2021/06/14 03:37:56;;;;;;;7.74;3.13;;;;;;;16.79;65.33;98794.57;374587;108;1961862;-74
2021/06/14 03:39:09;;;;;;;7.61;3.17;;;;;;;16.96;65.37;98794.33;383988;104;2885947;-74
2021/06/14 03:40:17;;;;;;;5.87;2.93;;;;;;;16.85;65.37;98788.03;362792;107;1960932;-75
2021/06/14 03:41:30;;;;;;;6.30;3.04;;;;;;;17.01;65.19;98790.80;325622;105;2244885;-75
2021/06/14 03:42:36;;;;;;;9.63;6.77;;;;;;;16.88;65.07;98795.70;356343;111;1963992;-75
2021/06/14 03:44:03;;;;;;;8.33;3.92;;;;;;;16.88;65.13;98795.70;323023;111;2602862;-75
2021/06/14 03:45:17;;;;;;;4.78;3.16;;;;;;;17.04;65.17;98788.38;387090;106;1986049;-76
2021/06/14 03:46:24;;;;;;;7.01;2.72;;;;;;;16.98;65.20;98799.53;364329;108;1963296;-75
2021/06/14 03:47:37;;;;;;;9.73;3.38;;;;;;;17.12;64.84;98798.77;383201;106;1986025;-75
2021/06/14 03:48:43;;;;;;;7.12;3.49;;;;;;;17.02;64.87;98793.28;362496;109;1962039;-76
2021/06/14 03:50:09;;;;;;;8.34;3.08;;;;;;;17.04;64.68;98798.45;359478;110;1961955;-74
2021/06/14 03:51:21;;;;;;;6.66;3.02;;;;;;;17.18;64.95;98802.31;389608;106;1985939;-76
2021/06/14 03:52:34;;;;;;;5.43;3.11;;;;;;;17.24;64.69;98797.68;392933;103;1984898;-75
2021/06/14 03:53:58;;;;;;;7.39;4.07;;;;;;;17.13;64.58;98803.12;374942;106;1961096;-78
2021/06/14 03:55:11;;;;;;;7.47;3.64;;;;;;;17.27;64.62;98794.41;376294;105;2948945;-76
2021/06/14 03:56:17;;;;;;;5.92;3.81;;;;;;;17.17;64.45;98797.93;364985;108;1969957;-75
2021/06/14 03:57:29;;;;;;;5.04;2.58;;;;;;;17.30;64.21;98799.31;383433;106;1985929;-74
2021/06/14 03:58:35;;;;;;;7.09;3.71;;;;;;;17.18;63.88;98794.13;363502;111;1962961;-76
2021/06/14 03:59:47;;;;;;;6.96;3.12;;;;;;;17.24;63.95;98784.84;385657;106;1965046;-76
2021/06/14 04:01:00;;;;;;;7.23;4.37;;;;;;;17.29;64.12;98794.95;393896;103;1986000;-74
2021/06/14 04:02:07;;;;;;;7.97;3.66;;;;;;;17.16;64.27;98790.03;348713;107;2412047;-74
2021/06/14 04:03:20;;;;;;;7.24;3.31;;;;;;;17.30;64.14;98797.41;383557;106;2072044;-75
2021/06/14 04:06:07;;;;;;;6.68;3.21;;;;;;;17.19;63.97;98800.41;314581;109;2872991;-76
2021/06/14 04:07:22;;;;;;;5.84;2.88;;;;;;;17.29;64.27;98798.50;346583;106;2584988;-76
2021/06/14 04:08:28;;;;;;;7.13;3.14;;;;;;;17.24;64.08;98795.77;337316;109;1962040;-74
2021/06/14 04:09:34;;;;;;;7.81;3.24;;;;;;;17.25;63.88;98802.88;359921;110;1964039;-75
2021/06/14 04:10:47;;;;;;;7.16;3.21;;;;;;;17.32;63.94;98802.60;391859;104;1962011;-75
2021/06/14 04:11:53;;;;;;;7.38;3.49;;;;;;;17.21;64.08;98807.23;330414;105;2783023;-76
2021/06/14 04:12:59;;;;;;;8.31;3.52;;;;;;;17.25;64.03;98805.61;371588;106;1962091;-76
2021/06/14 04:14:11;;;;;;;6.91;3.24;;;;;;;17.38;64.14;98803.42;392233;106;1986995;-76
2021/06/14 04:15:16;;;;;;;5.51;3.24;;;;;;;17.27;64.17;98813.52;371629;107;1962931;-76
2021/06/14 04:16:23;;;;;;;5.79;3.32;;;;;;;17.30;64.10;98812.97;372935;107;1961933;-78
2021/06/14 04:17:28;;;;;;;6.06;3.22;;;;;;;17.30;64.06;98807.50;341664;107;2427008;-76
2021/06/14 04:18:35;;;;;;;6.92;2.96;;;;;;;17.27;64.18;98808.87;367687;109;1962063;-77
2021/06/14 04:19:48;;;;;;;6.28;2.96;;;;;;;17.38;64.22;98812.42;385390;106;1986945;-76
2021/06/14 04:20:54;;;;;;;7.73;3.33;;;;;;;17.26;64.12;98811.88;304977;108;2198142;-75
2021/06/14 04:22:06;;;;;;;6.44;2.97;;;;;;;17.36;64.13;98815.45;397887;104;1983061;-74
2021/06/14 04:23:12;;;;;;;9.86;3.63;;;;;;;17.26;64.22;98820.89;380733;105;1962029;-74
2021/06/14 04:24:24;;;;;;;7.37;3.73;;;;;;;17.44;64.15;98813.25;362525;101;2582977;-74
2021/06/14 04:25:30;;;;;;;7.95;3.10;;;;;;;17.38;64.15;98819.80;360346;103;1972869;-74
2021/06/14 04:26:54;;;;;;;10.07;3.53;;;;;;;17.43;64.09;98822.54;383738;103;1963993;-74
2021/06/14 04:28:09;;;;;;;8.48;3.17;;;;;;;17.68;63.90;98819.83;385137;106;1986019;-74
2021/06/14 04:29:15;;;;;;;6.88;3.47;;;;;;;17.66;63.59;98822.02;317503;109;2846963;-76
2021/06/14 04:30:28;;;;;;;8.92;3.25;;;;;;;17.84;63.30;98822.59;394590;104;1966007;-75
2021/06/14 04:31:34;;;;;;;7.94;3.37;;;;;;;17.77;63.34;98823.64;368949;109;1970011;-74
2021/06/14 04:32:47;;;;;;;7.92;3.39;;;;;;;17.97;63.12;98827.50;378663;108;1961957;-77
2021/06/14 04:33:53;;;;;;;8.99;4.89;;;;;;;17.88;62.98;98819.02;358514;112;1969952;-73
2021/06/14 04:35:16;;;;;;;6.78;3.52;;;;;;;17.89;63.06;98830.77;350123;111;1961983;-75
2021/06/14 04:36:30;;;;;;;8.09;3.53;;;;;;;18.00;62.92;98818.75;376722;107;2071946;-75
2021/06/14 04:37:36;;;;;;;7.29;4.34;;;;;;;17.90;63.00;98827.77;320596;110;2701856;-76
2021/06/14 04:38:49;;;;;;;9.43;4.53;;;;;;;18.00;63.07;98827.77;394414;103;1985978;-74
2021/06/14 04:39:54;;;;;;;7.78;3.54;;;;;;;17.91;63.05;98829.39;372854;106;1962056;-75
2021/06/14 04:41:18;;;;;;;6.52;3.12;;;;;;;17.93;63.13;98824.48;371322;107;1962967;-75
2021/06/14 04:42:30;;;;;;;6.41;3.79;;;;;;;18.09;63.21;98824.47;390754;103;1985959;-75
2021/06/14 04:43:37;;;;;;;6.96;3.86;;;;;;;18.01;63.08;98834.04;361206;108;2862059;-75
2021/06/14 04:44:49;;;;;;;8.32;3.44;;;;;;;18.14;63.25;98830.74;385112;106;1965072;-77
2021/06/14 04:45:55;;;;;;;6.60;3.07;;;;;;;18.07;63.05;98840.31;367968;108;1961216;-77
2021/06/14 04:47:19;;;;;;;8.57;4.09;;;;;;;18.09;63.13;98840.87;362212;110;1962038;-75
2021/06/14 04:48:31;;;;;;;7.19;3.93;;;;;;;18.25;63.17;98845.20;389066;103;2071931;-75
2021/06/14 04:49:38;;;;;;;7.44;4.16;;;;;;;18.16;63.11;98844.95;330200;107;2754059;-76
2021/06/14 04:50:50;;;;;;;8.13;4.89;;;;;;;18.34;63.02;98843.56;383708;106;2082047;-76
2021/06/14 04:51:56;;;;;;;8.46;3.68;;;;;;;18.28;62.87;98844.66;371659;107;1962046;-75
2021/06/14 04:53:08;;;;;;;7.54;3.66;;;;;;;18.45;62.55;98858.03;356712;106;2457082;-75
2021/06/14 04:54:14;;;;;;;9.54;4.09;;;;;;;18.38;62.41;98854.76;345728;108;1963074;-77
2021/06/14 04:55:37;;;;;;;6.33;3.13;;;;;;;18.43;62.27;98860.22;365371;109;1961977;-76
2021/06/14 04:56:44;;;;;;;6.59;3.23;;;;;;;18.44;62.13;98859.95;353356;111;1962075;-75
2021/06/14 04:57:50;;;;;;;7.49;3.27;;;;;;;18.47;62.11;98853.11;363328;109;1961102;-76
2021/06/14 04:59:02;;;;;;;76.66;50.09;;;;;;;18.56;62.17;98854.16;386436;106;1986055;-76
2021/06/14 05:00:09;;;;;;;41.96;26.24;;;;;;;18.45;62.26;98858.03;361982;106;1960649;-75
2021/06/14 05:01:21;;;;;;;13.24;7.34;;;;;;;18.54;62.25;98852.80;393984;104;1986011;-76
2021/06/14 05:02:27;;;;;;;8.46;4.46;;;;;;;18.42;62.21;98853.13;365530;109;1962034;-77
2021/06/14 05:03:40;;;;;;;7.73;3.71;;;;;;;18.52;62.14;98855.80;329780;103;2268926;-74
2021/06/14 05:04:46;;;;;;;11.37;5.33;;;;;;;18.41;61.87;98862.41;375304;105;1961992;-74
2021/06/14 05:05:57;;;;;;;7.01;2.94;;;;;;;18.50;62.07;98848.97;394730;104;1985920;-77
2021/06/14 05:07:04;;;;;;;9.39;3.52;;;;;;;18.40;62.14;98860.77;373839;106;1961933;-77
2021/06/14 05:08:27;;;;;;;7.58;3.92;;;;;;;18.39;62.11;98854.49;376952;106;1963077;-76
2021/06/14 05:09:42;;;;;;;8.45;3.62;;;;;;;18.53;62.14;98862.92;396746;104;1986047;-75
2021/06/14 05:10:50;;;;;;;10.92;3.94;;;;;;;18.45;62.06;98869.78;380733;105;1964990;-76
2021/06/14 05:12:02;;;;;;;9.24;3.54;;;;;;;18.56;62.15;98870.58;392762;104;1962980;-75
2021/06/14 05:13:08;;;;;;;7.17;3.24;;;;;;;18.45;62.16;98867.05;367977;107;1969944;-75
2021/06/14 05:14:20;;;;;;;17.97;7.80;;;;;;;18.58;62.06;98881.25;397123;104;1986053;-75
2021/06/14 05:15:27;;;;;;;10.61;4.99;;;;;;;18.48;62.14;98878.53;372640;105;2883048;-76
2021/06/14 05:16:52;;;;;;;9.60;4.97;;;;;;;18.51;62.15;98881.52;339346;105;1999011;-74
2021/06/14 05:17:57;;;;;;;9.00;4.53;;;;;;;18.48;62.15;98884.00;347570;107;1962886;-75
2021/06/14 05:19:10;;;;;;;10.21;4.37;;;;;;;18.60;62.25;98885.34;375125;109;1982937;-77
2021/06/14 05:20:17;;;;;;;7.44;3.79;;;;;;;18.47;62.30;98877.72;356554;109;1961043;-77
2021/06/14 05:21:23;;;;;;;10.37;4.72;;;;;;;18.48;62.43;98884.00;297062;116;2098956;-76
2021/06/14 05:22:35;;;;;;;10.49;4.39;;;;;;;18.58;62.50;98882.06;392079;104;2077856;-75
2021/06/14 05:23:40;;;;;;;9.76;4.32;;;;;;;18.47;62.56;98883.19;374264;107;1964954;-76
2021/06/14 05:24:53;;;;;;;8.57;4.85;;;;;;;18.58;62.56;98898.47;345781;108;2567942;-77
2021/06/14 05:25:59;;;;;;;8.51;3.31;;;;;;;18.45;62.67;98886.19;359692;111;1963023;-77
2021/06/14 05:27:06;;;;;;;8.01;4.09;;;;;;;18.46;62.64;98882.34;354295;112;1960929;-76
2021/06/14 05:28:11;;;;;;;8.87;3.72;;;;;;;18.53;62.52;98886.73;350006;114;1961952;-76
2021/06/14 05:29:24;;;;;;;9.08;3.77;;;;;;;18.66;62.44;98889.70;346266;103;2091972;-75
2021/06/14 05:30:31;;;;;;;10.04;3.92;;;;;;;18.58;62.42;98893.00;368837;107;1961843;-76
2021/06/14 05:31:47;;;;;;;12.63;4.57;;;;;;;18.71;62.47;98888.02;385731;106;1986004;-76
2021/06/14 05:32:54;;;;;;;7.52;3.44;;;;;;;18.60;62.48;98893.55;359484;112;1962086;-75
2021/06/14 05:34:17;;;;;;;18.12;7.51;;;;;;;18.61;62.49;98889.70;354526;113;1962073;-76
2021/06/14 05:35:33;;;;;;;25.16;8.29;;;;;;;18.73;62.62;98891.31;336089;108;2879974;31
2021/06/14 05:36:39;;;;;;;12.34;6.27;;;;;;;18.67;62.43;98890.52;352820;113;1960965;-77